sensor_id;sensor_type;location;lat;lon;timestamp;P1;durP1;ratioP1;P2;durP2;ratioP2
4577;SDS011;2301;47.354;8.528;2023-04-01T00:00:52;3.45;;;1.13;;
4577;SDS011;2301;47.354;8.528;2023-04-01T00:03:19;5.65;;;1.30;;
4577;SDS011;2301;47.354;8.528;2023-04-01T00:05:47;7.05;;;1.30;;
4577;SDS011;2301;47.354;8.528;2023-04-01T00:08:15;3.97;;;1.20;;
4577;SDS011;2301;47.354;8.528;2023-04-01T00:10:43;2.97;;;1.23;;
4577;SDS011;2301;47.354;8.528;2023-04-01T00:13:10;4.80;;;1.25;;
4577;SDS011;2301;47.354;8.528;2023-04-01T00:15:40;3.20;;;1.15;;
4577;SDS011;2301;47.354;8.528;2023-04-01T00:18:09;2.88;;;1.10;;
4577;SDS011;2301;47.354;8.528;2023-04-01T00:20:37;2.42;;;0.90;;
4577;SDS011;2301;47.354;8.528;2023-04-01T00:23:04;3.95;;;1.35;;
4577;SDS011;2301;47.354;8.528;2023-04-01T00:25:31;1.85;;;1.17;;
4577;SDS011;2301;47.354;8.528;2023-04-01T00:28:01;2.83;;;1.30;;
4577;SDS011;2301;47.354;8.528;2023-04-01T00:30:28;5.63;;;1.75;;
4577;SDS011;2301;47.354;8.528;2023-04-01T00:32:57;4.25;;;1.50;;
4577;SDS011;2301;47.354;8.528;2023-04-01T00:35:24;3.15;;;1.30;;
4577;SDS011;2301;47.354;8.528;2023-04-01T00:37:51;3.55;;;1.13;;
4577;SDS011;2301;47.354;8.528;2023-04-01T00:40:22;2.33;;;1.40;;
4577;SDS011;2301;47.354;8.528;2023-04-01T00:42:52;2.85;;;1.13;;
4577;SDS011;2301;47.354;8.528;2023-04-01T00:45:23;4.25;;;1.10;;
4577;SDS011;2301;47.354;8.528;2023-04-01T00:48:03;3.80;;;1.25;;
4577;SDS011;2301;47.354;8.528;2023-04-01T00:50:33;1.95;;;1.00;;
4577;SDS011;2301;47.354;8.528;2023-04-01T00:53:02;1.95;;;1.20;;
4577;SDS011;2301;47.354;8.528;2023-04-01T00:55:32;1.30;;;0.93;;
4577;SDS011;2301;47.354;8.528;2023-04-01T00:58:02;4.28;;;1.10;;
4577;SDS011;2301;47.354;8.528;2023-04-01T01:00:32;2.85;;;1.00;;
4577;SDS011;2301;47.354;8.528;2023-04-01T01:03:00;4.72;;;1.48;;
4577;SDS011;2301;47.354;8.528;2023-04-01T01:05:37;3.03;;;0.90;;
4577;SDS011;2301;47.354;8.528;2023-04-01T01:08:17;2.08;;;1.00;;
4577;SDS011;2301;47.354;8.528;2023-04-01T01:10:55;2.58;;;1.33;;
4577;SDS011;2301;47.354;8.528;2023-04-01T01:13:26;2.55;;;1.08;;
4577;SDS011;2301;47.354;8.528;2023-04-01T01:16:01;3.17;;;1.20;;
4577;SDS011;2301;47.354;8.528;2023-04-01T01:18:35;3.95;;;1.25;;
4577;SDS011;2301;47.354;8.528;2023-04-01T01:21:19;3.42;;;1.10;;
4577;SDS011;2301;47.354;8.528;2023-04-01T01:24:13;2.88;;;1.00;;
4577;SDS011;2301;47.354;8.528;2023-04-01T01:32:37;2.83;;;1.00;;
4577;SDS011;2301;47.354;8.528;2023-04-01T01:35:21;1.83;;;1.00;;
4577;SDS011;2301;47.354;8.528;2023-04-01T01:37:51;1.95;;;1.00;;
4577;SDS011;2301;47.354;8.528;2023-04-01T01:40:22;5.32;;;1.65;;
4577;SDS011;2301;47.354;8.528;2023-04-01T01:42:51;2.30;;;1.25;;
4577;SDS011;2301;47.354;8.528;2023-04-01T01:45:25;5.18;;;1.20;;
4577;SDS011;2301;47.354;8.528;2023-04-01T01:47:53;6.82;;;1.80;;
4577;SDS011;2301;47.354;8.528;2023-04-01T01:50:24;3.70;;;1.30;;
4577;SDS011;2301;47.354;8.528;2023-04-01T01:53:00;3.05;;;1.13;;
4577;SDS011;2301;47.354;8.528;2023-04-01T01:55:29;4.85;;;1.30;;
4577;SDS011;2301;47.354;8.528;2023-04-01T01:57:58;3.90;;;1.40;;
4577;SDS011;2301;47.354;8.528;2023-04-01T02:00:28;3.08;;;1.35;;
4577;SDS011;2301;47.354;8.528;2023-04-01T02:02:56;2.78;;;1.35;;
4577;SDS011;2301;47.354;8.528;2023-04-01T02:05:26;3.00;;;1.20;;
4577;SDS011;2301;47.354;8.528;2023-04-01T02:07:57;6.20;;;1.70;;
4577;SDS011;2301;47.354;8.528;2023-04-01T02:10:30;4.03;;;1.63;;
4577;SDS011;2301;47.354;8.528;2023-04-01T02:13:01;4.93;;;1.48;;
4577;SDS011;2301;47.354;8.528;2023-04-01T02:15:35;6.80;;;1.52;;
4577;SDS011;2301;47.354;8.528;2023-04-01T02:18:06;6.43;;;1.60;;
4577;SDS011;2301;47.354;8.528;2023-04-01T02:20:35;5.18;;;1.38;;
4577;SDS011;2301;47.354;8.528;2023-04-01T02:23:05;5.78;;;1.50;;
4577;SDS011;2301;47.354;8.528;2023-04-01T02:25:34;3.38;;;1.45;;
4577;SDS011;2301;47.354;8.528;2023-04-01T02:28:04;5.80;;;1.77;;
4577;SDS011;2301;47.354;8.528;2023-04-01T02:30:33;7.88;;;1.40;;
4577;SDS011;2301;47.354;8.528;2023-04-01T02:33:02;2.83;;;1.33;;
4577;SDS011;2301;47.354;8.528;2023-04-01T02:35:32;5.40;;;1.58;;
4577;SDS011;2301;47.354;8.528;2023-04-01T02:38:03;3.72;;;1.40;;
4577;SDS011;2301;47.354;8.528;2023-04-01T02:40:40;3.90;;;1.40;;
4577;SDS011;2301;47.354;8.528;2023-04-01T02:43:12;3.85;;;1.58;;
4577;SDS011;2301;47.354;8.528;2023-04-01T02:45:41;6.57;;;1.52;;
4577;SDS011;2301;47.354;8.528;2023-04-01T02:48:08;4.97;;;1.60;;
4577;SDS011;2301;47.354;8.528;2023-04-01T02:50:35;3.90;;;1.50;;
4577;SDS011;2301;47.354;8.528;2023-04-01T02:53:03;2.95;;;1.20;;
4577;SDS011;2301;47.354;8.528;2023-04-01T02:55:31;7.40;;;1.63;;
4577;SDS011;2301;47.354;8.528;2023-04-01T02:57:58;6.15;;;1.70;;
4577;SDS011;2301;47.354;8.528;2023-04-01T03:00:25;3.15;;;1.38;;
4577;SDS011;2301;47.354;8.528;2023-04-01T03:02:53;5.15;;;1.38;;
4577;SDS011;2301;47.354;8.528;2023-04-01T03:05:20;7.25;;;1.80;;
4577;SDS011;2301;47.354;8.528;2023-04-01T03:07:47;4.25;;;1.50;;
4577;SDS011;2301;47.354;8.528;2023-04-01T03:10:15;3.75;;;1.27;;
4577;SDS011;2301;47.354;8.528;2023-04-01T03:12:42;5.82;;;1.60;;
4577;SDS011;2301;47.354;8.528;2023-04-01T03:15:10;3.22;;;1.40;;
4577;SDS011;2301;47.354;8.528;2023-04-01T03:17:38;3.85;;;1.42;;
4577;SDS011;2301;47.354;8.528;2023-04-01T03:20:06;3.92;;;1.60;;
4577;SDS011;2301;47.354;8.528;2023-04-01T03:22:35;8.02;;;1.45;;
4577;SDS011;2301;47.354;8.528;2023-04-01T03:25:03;4.90;;;1.40;;
4577;SDS011;2301;47.354;8.528;2023-04-01T03:27:34;5.25;;;1.40;;
4577;SDS011;2301;47.354;8.528;2023-04-01T03:30:01;4.68;;;1.50;;
4577;SDS011;2301;47.354;8.528;2023-04-01T03:32:29;4.43;;;1.30;;
4577;SDS011;2301;47.354;8.528;2023-04-01T03:34:56;6.30;;;1.42;;
4577;SDS011;2301;47.354;8.528;2023-04-01T03:37:23;4.78;;;1.52;;
4577;SDS011;2301;47.354;8.528;2023-04-01T03:39:50;3.25;;;1.10;;
4577;SDS011;2301;47.354;8.528;2023-04-01T03:42:17;6.97;;;1.45;;
4577;SDS011;2301;47.354;8.528;2023-04-01T03:44:46;3.97;;;1.40;;
4577;SDS011;2301;47.354;8.528;2023-04-01T03:47:13;5.30;;;1.40;;
4577;SDS011;2301;47.354;8.528;2023-04-01T03:49:40;6.47;;;1.50;;
4577;SDS011;2301;47.354;8.528;2023-04-01T03:52:08;3.00;;;1.25;;
4577;SDS011;2301;47.354;8.528;2023-04-01T03:54:35;5.88;;;1.50;;
4577;SDS011;2301;47.354;8.528;2023-04-01T03:57:03;3.63;;;1.30;;
4577;SDS011;2301;47.354;8.528;2023-04-01T03:59:30;4.57;;;1.70;;
4577;SDS011;2301;47.354;8.528;2023-04-01T04:01:58;3.50;;;1.13;;
4577;SDS011;2301;47.354;8.528;2023-04-01T04:04:26;5.18;;;1.63;;
4577;SDS011;2301;47.354;8.528;2023-04-01T04:06:53;3.28;;;1.40;;
4577;SDS011;2301;47.354;8.528;2023-04-01T04:09:20;1.95;;;0.90;;
4577;SDS011;2301;47.354;8.528;2023-04-01T04:11:47;4.70;;;1.38;;
4577;SDS011;2301;47.354;8.528;2023-04-01T04:14:15;4.65;;;1.30;;
4577;SDS011;2301;47.354;8.528;2023-04-01T04:16:42;5.40;;;1.38;;
4577;SDS011;2301;47.354;8.528;2023-04-01T04:19:15;5.22;;;1.60;;
4577;SDS011;2301;47.354;8.528;2023-04-01T04:21:45;2.70;;;0.90;;
4577;SDS011;2301;47.354;8.528;2023-04-01T04:24:17;6.00;;;1.67;;
4577;SDS011;2301;47.354;8.528;2023-04-01T04:26:47;9.85;;;1.42;;
4577;SDS011;2301;47.354;8.528;2023-04-01T04:29:13;5.22;;;1.15;;
4577;SDS011;2301;47.354;8.528;2023-04-01T04:31:40;3.55;;;1.23;;
4577;SDS011;2301;47.354;8.528;2023-04-01T04:34:08;3.30;;;1.23;;
4577;SDS011;2301;47.354;8.528;2023-04-01T04:36:36;2.35;;;1.13;;
4577;SDS011;2301;47.354;8.528;2023-04-01T04:39:03;3.47;;;1.20;;
4577;SDS011;2301;47.354;8.528;2023-04-01T04:41:30;2.88;;;1.15;;
4577;SDS011;2301;47.354;8.528;2023-04-01T04:43:57;3.90;;;1.48;;
4577;SDS011;2301;47.354;8.528;2023-04-01T04:46:24;3.17;;;1.15;;
4577;SDS011;2301;47.354;8.528;2023-04-01T04:48:52;2.72;;;1.15;;
4577;SDS011;2301;47.354;8.528;2023-04-01T04:51:19;4.43;;;1.27;;
4577;SDS011;2301;47.354;8.528;2023-04-01T04:53:48;3.78;;;1.20;;
4577;SDS011;2301;47.354;8.528;2023-04-01T04:56:17;3.97;;;1.15;;
4577;SDS011;2301;47.354;8.528;2023-04-01T04:58:51;4.38;;;1.30;;
4577;SDS011;2301;47.354;8.528;2023-04-01T05:01:21;7.22;;;1.60;;
4577;SDS011;2301;47.354;8.528;2023-04-01T05:03:48;2.15;;;1.00;;
4577;SDS011;2301;47.354;8.528;2023-04-01T05:06:16;3.60;;;1.30;;
4577;SDS011;2301;47.354;8.528;2023-04-01T05:08:44;2.80;;;1.33;;
4577;SDS011;2301;47.354;8.528;2023-04-01T05:11:13;2.28;;;1.00;;
4577;SDS011;2301;47.354;8.528;2023-04-01T05:13:42;2.05;;;1.13;;
4577;SDS011;2301;47.354;8.528;2023-04-01T05:16:09;2.10;;;0.93;;
4577;SDS011;2301;47.354;8.528;2023-04-01T05:18:37;3.42;;;1.13;;
4577;SDS011;2301;47.354;8.528;2023-04-01T05:21:04;4.25;;;0.93;;
4577;SDS011;2301;47.354;8.528;2023-04-01T05:23:33;2.00;;;0.95;;
4577;SDS011;2301;47.354;8.528;2023-04-01T05:26:02;3.17;;;1.05;;
4577;SDS011;2301;47.354;8.528;2023-04-01T05:28:31;3.85;;;1.20;;
4577;SDS011;2301;47.354;8.528;2023-04-01T05:30:58;6.65;;;1.10;;
4577;SDS011;2301;47.354;8.528;2023-04-01T05:33:26;3.10;;;1.08;;
4577;SDS011;2301;47.354;8.528;2023-04-01T05:35:53;2.70;;;1.10;;
4577;SDS011;2301;47.354;8.528;2023-04-01T05:38:20;3.35;;;1.20;;
4577;SDS011;2301;47.354;8.528;2023-04-01T05:40:47;7.43;;;1.30;;
4577;SDS011;2301;47.354;8.528;2023-04-01T05:43:14;1.98;;;1.17;;
4577;SDS011;2301;47.354;8.528;2023-04-01T05:45:44;4.35;;;1.00;;
4577;SDS011;2301;47.354;8.528;2023-04-01T05:48:11;1.60;;;0.90;;
4577;SDS011;2301;47.354;8.528;2023-04-01T05:50:39;2.92;;;1.08;;
4577;SDS011;2301;47.354;8.528;2023-04-01T05:53:07;2.53;;;1.10;;
4577;SDS011;2301;47.354;8.528;2023-04-01T05:55:34;2.33;;;1.00;;
4577;SDS011;2301;47.354;8.528;2023-04-01T05:58:02;3.00;;;1.35;;
4577;SDS011;2301;47.354;8.528;2023-04-01T06:00:29;6.07;;;1.70;;
4577;SDS011;2301;47.354;8.528;2023-04-01T06:02:59;1.83;;;1.10;;
4577;SDS011;2301;47.354;8.528;2023-04-01T06:05:27;2.33;;;1.10;;
4577;SDS011;2301;47.354;8.528;2023-04-01T06:07:57;2.85;;;1.10;;
4577;SDS011;2301;47.354;8.528;2023-04-01T06:10:32;5.25;;;1.60;;
4577;SDS011;2301;47.354;8.528;2023-04-01T06:13:08;2.40;;;0.90;;
4577;SDS011;2301;47.354;8.528;2023-04-01T06:15:44;2.47;;;0.98;;
4577;SDS011;2301;47.354;8.528;2023-04-01T06:18:29;2.72;;;1.10;;
4577;SDS011;2301;47.354;8.528;2023-04-01T06:21:12;2.85;;;1.10;;
4577;SDS011;2301;47.354;8.528;2023-04-01T06:24:01;2.53;;;1.75;;
4577;SDS011;2301;47.354;8.528;2023-04-01T06:26:41;1.90;;;0.90;;
4577;SDS011;2301;47.354;8.528;2023-04-01T06:29:25;2.70;;;1.05;;
4577;SDS011;2301;47.354;8.528;2023-04-01T06:32:15;1.90;;;1.02;;
4577;SDS011;2301;47.354;8.528;2023-04-01T06:35:02;2.25;;;1.00;;
4577;SDS011;2301;47.354;8.528;2023-04-01T06:38:01;2.40;;;1.00;;
4577;SDS011;2301;47.354;8.528;2023-04-01T06:41:01;1.40;;;0.90;;
4577;SDS011;2301;47.354;8.528;2023-04-01T06:43:59;3.70;;;0.85;;
4577;SDS011;2301;47.354;8.528;2023-04-01T06:46:44;1.70;;;0.70;;
4577;SDS011;2301;47.354;8.528;2023-04-01T06:49:21;3.58;;;1.17;;
4577;SDS011;2301;47.354;8.528;2023-04-01T06:52:08;1.65;;;0.95;;
4577;SDS011;2301;47.354;8.528;2023-04-01T06:54:46;1.85;;;0.82;;
4577;SDS011;2301;47.354;8.528;2023-04-01T06:57:20;2.42;;;1.20;;
4577;SDS011;2301;47.354;8.528;2023-04-01T06:59:50;1.70;;;0.90;;
4577;SDS011;2301;47.354;8.528;2023-04-01T07:02:20;1.88;;;0.88;;
4577;SDS011;2301;47.354;8.528;2023-04-01T07:04:55;1.30;;;0.70;;
4577;SDS011;2301;47.354;8.528;2023-04-01T07:07:29;1.95;;;0.90;;
4577;SDS011;2301;47.354;8.528;2023-04-01T07:10:02;1.70;;;1.00;;
4577;SDS011;2301;47.354;8.528;2023-04-01T07:12:37;3.08;;;0.93;;
4577;SDS011;2301;47.354;8.528;2023-04-01T07:15:13;1.25;;;0.80;;
4577;SDS011;2301;47.354;8.528;2023-04-01T07:17:45;1.40;;;0.80;;
4577;SDS011;2301;47.354;8.528;2023-04-01T07:20:17;1.50;;;0.90;;
4577;SDS011;2301;47.354;8.528;2023-04-01T07:22:54;1.40;;;0.90;;
4577;SDS011;2301;47.354;8.528;2023-04-01T07:25:24;1.67;;;0.80;;
4577;SDS011;2301;47.354;8.528;2023-04-01T07:27:56;1.30;;;0.80;;
4577;SDS011;2301;47.354;8.528;2023-04-01T07:30:28;1.98;;;0.90;;
4577;SDS011;2301;47.354;8.528;2023-04-01T07:33:11;1.40;;;0.90;;
4577;SDS011;2301;47.354;8.528;2023-04-01T07:35:43;1.83;;;0.95;;
4577;SDS011;2301;47.354;8.528;2023-04-01T07:38:20;1.55;;;0.80;;
4577;SDS011;2301;47.354;8.528;2023-04-01T07:40:58;2.50;;;0.82;;
4577;SDS011;2301;47.354;8.528;2023-04-01T07:43:41;1.50;;;0.80;;
4577;SDS011;2301;47.354;8.528;2023-04-01T07:46:17;1.30;;;0.70;;
4577;SDS011;2301;47.354;8.528;2023-04-01T07:48:56;2.28;;;1.00;;
4577;SDS011;2301;47.354;8.528;2023-04-01T07:51:29;3.55;;;1.00;;
4577;SDS011;2301;47.354;8.528;2023-04-01T07:54:04;3.58;;;0.95;;
4577;SDS011;2301;47.354;8.528;2023-04-01T07:56:37;1.40;;;0.93;;
4577;SDS011;2301;47.354;8.528;2023-04-01T07:59:09;2.00;;;0.80;;
4577;SDS011;2301;47.354;8.528;2023-04-01T08:01:46;4.25;;;0.80;;
4577;SDS011;2301;47.354;8.528;2023-04-01T08:04:23;1.50;;;0.80;;
4577;SDS011;2301;47.354;8.528;2023-04-01T08:06:59;4.47;;;1.13;;
4577;SDS011;2301;47.354;8.528;2023-04-01T08:09:35;5.50;;;1.00;;
4577;SDS011;2301;47.354;8.528;2023-04-01T08:12:13;2.95;;;1.13;;
4577;SDS011;2301;47.354;8.528;2023-04-01T08:14:52;1.65;;;0.90;;
4577;SDS011;2301;47.354;8.528;2023-04-01T08:17:26;2.22;;;0.90;;
4577;SDS011;2301;47.354;8.528;2023-04-01T08:20:07;1.50;;;0.80;;
4577;SDS011;2301;47.354;8.528;2023-04-01T08:22:45;2.67;;;0.90;;
4577;SDS011;2301;47.354;8.528;2023-04-01T08:25:19;1.52;;;0.73;;
4577;SDS011;2301;47.354;8.528;2023-04-01T08:27:51;2.15;;;0.80;;
4577;SDS011;2301;47.354;8.528;2023-04-01T08:30:21;1.60;;;0.80;;
4577;SDS011;2301;47.354;8.528;2023-04-01T08:32:51;1.10;;;0.80;;
4577;SDS011;2301;47.354;8.528;2023-04-01T08:35:25;2.50;;;0.90;;
4577;SDS011;2301;47.354;8.528;2023-04-01T08:37:57;2.00;;;0.90;;
4577;SDS011;2301;47.354;8.528;2023-04-01T08:43:22;1.73;;;0.82;;
4577;SDS011;2301;47.354;8.528;2023-04-01T08:49:14;1.50;;;0.80;;
4577;SDS011;2301;47.354;8.528;2023-04-01T08:55:13;2.53;;;0.80;;
4577;SDS011;2301;47.354;8.528;2023-04-01T08:57:59;1.30;;;0.90;;
4577;SDS011;2301;47.354;8.528;2023-04-01T09:01:09;1.20;;;0.80;;
4577;SDS011;2301;47.354;8.528;2023-04-01T09:03:58;3.60;;;1.42;;
4577;SDS011;2301;47.354;8.528;2023-04-01T09:06:44;1.60;;;0.93;;
4577;SDS011;2301;47.354;8.528;2023-04-01T09:09:28;1.90;;;0.93;;
4577;SDS011;2301;47.354;8.528;2023-04-01T09:12:19;1.40;;;0.80;;
4577;SDS011;2301;47.354;8.528;2023-04-01T09:15:16;1.30;;;0.80;;
4577;SDS011;2301;47.354;8.528;2023-04-01T09:18:13;3.55;;;0.88;;
4577;SDS011;2301;47.354;8.528;2023-04-01T09:21:02;1.38;;;0.90;;
4577;SDS011;2301;47.354;8.528;2023-04-01T09:23:47;1.80;;;0.82;;
4577;SDS011;2301;47.354;8.528;2023-04-01T09:26:28;2.35;;;0.90;;
4577;SDS011;2301;47.354;8.528;2023-04-01T09:29:08;1.60;;;0.93;;
4577;SDS011;2301;47.354;8.528;2023-04-01T09:32:03;2.30;;;1.08;;
4577;SDS011;2301;47.354;8.528;2023-04-01T09:34:51;1.55;;;0.80;;
4577;SDS011;2301;47.354;8.528;2023-04-01T09:37:20;1.75;;;0.80;;
4577;SDS011;2301;47.354;8.528;2023-04-01T09:40:00;1.63;;;0.80;;
4577;SDS011;2301;47.354;8.528;2023-04-01T09:42:43;1.60;;;0.90;;
4577;SDS011;2301;47.354;8.528;2023-04-01T09:45:16;1.65;;;0.80;;
4577;SDS011;2301;47.354;8.528;2023-04-01T09:48:00;1.50;;;1.00;;
4577;SDS011;2301;47.354;8.528;2023-04-01T09:50:39;2.75;;;1.00;;
4577;SDS011;2301;47.354;8.528;2023-04-01T09:53:16;1.40;;;0.77;;
4577;SDS011;2301;47.354;8.528;2023-04-01T09:56:03;2.03;;;0.90;;
4577;SDS011;2301;47.354;8.528;2023-04-01T09:58:59;2.95;;;0.75;;
4577;SDS011;2301;47.354;8.528;2023-04-01T10:04:50;1.58;;;0.80;;
4577;SDS011;2301;47.354;8.528;2023-04-01T10:07:46;1.00;;;0.70;;
4577;SDS011;2301;47.354;8.528;2023-04-01T10:10:41;1.92;;;0.85;;
4577;SDS011;2301;47.354;8.528;2023-04-01T10:13:41;1.50;;;0.80;;
4577;SDS011;2301;47.354;8.528;2023-04-01T10:16:34;1.33;;;0.70;;
4577;SDS011;2301;47.354;8.528;2023-04-01T10:19:39;1.20;;;0.80;;
4577;SDS011;2301;47.354;8.528;2023-04-01T10:22:49;1.20;;;0.70;;
4577;SDS011;2301;47.354;8.528;2023-04-01T10:25:53;1.10;;;0.70;;
4577;SDS011;2301;47.354;8.528;2023-04-01T10:28:42;1.48;;;0.90;;
4577;SDS011;2301;47.354;8.528;2023-04-01T10:40:40;1.40;;;0.80;;
4577;SDS011;2301;47.354;8.528;2023-04-01T10:43:23;1.35;;;0.85;;
4577;SDS011;2301;47.354;8.528;2023-04-01T10:55:22;1.10;;;0.73;;
4577;SDS011;2301;47.354;8.528;2023-04-01T10:58:22;1.60;;;0.90;;
4577;SDS011;2301;47.354;8.528;2023-04-01T11:01:42;1.50;;;0.90;;
4577;SDS011;2301;47.354;8.528;2023-04-01T11:04:56;1.20;;;0.70;;
4577;SDS011;2301;47.354;8.528;2023-04-01T11:20:48;3.90;;;0.90;;
4577;SDS011;2301;47.354;8.528;2023-04-01T11:23:45;1.20;;;0.70;;
4577;SDS011;2301;47.354;8.528;2023-04-01T11:26:22;1.50;;;0.80;;
4577;SDS011;2301;47.354;8.528;2023-04-01T11:29:11;1.77;;;0.90;;
4577;SDS011;2301;47.354;8.528;2023-04-01T11:31:54;10.88;;;0.80;;
4577;SDS011;2301;47.354;8.528;2023-04-01T11:34:39;1.45;;;0.90;;
4577;SDS011;2301;47.354;8.528;2023-04-01T11:37:21;6.47;;;1.10;;
4577;SDS011;2301;47.354;8.528;2023-04-01T11:40:01;1.20;;;0.80;;
4577;SDS011;2301;47.354;8.528;2023-04-01T11:42:38;1.65;;;1.00;;
4577;SDS011;2301;47.354;8.528;2023-04-01T11:45:18;1.30;;;0.90;;
4577;SDS011;2301;47.354;8.528;2023-04-01T11:54:03;2.50;;;0.82;;
4577;SDS011;2301;47.354;8.528;2023-04-01T11:56:48;1.58;;;0.88;;
4577;SDS011;2301;47.354;8.528;2023-04-01T12:02:47;2.10;;;1.00;;
4577;SDS011;2301;47.354;8.528;2023-04-01T12:05:26;1.60;;;0.82;;
4577;SDS011;2301;47.354;8.528;2023-04-01T12:08:09;2.30;;;1.00;;
4577;SDS011;2301;47.354;8.528;2023-04-01T12:10:50;1.10;;;0.70;;
4577;SDS011;2301;47.354;8.528;2023-04-01T12:13:29;1.30;;;0.90;;
4577;SDS011;2301;47.354;8.528;2023-04-01T12:16:06;2.20;;;0.95;;
4577;SDS011;2301;47.354;8.528;2023-04-01T12:18:44;3.75;;;1.00;;
4577;SDS011;2301;47.354;8.528;2023-04-01T12:21:20;2.47;;;0.93;;
4577;SDS011;2301;47.354;8.528;2023-04-01T12:27:00;1.60;;;0.77;;
4577;SDS011;2301;47.354;8.528;2023-04-01T12:29:54;1.33;;;0.80;;
4577;SDS011;2301;47.354;8.528;2023-04-01T12:32:49;1.10;;;0.70;;
4577;SDS011;2301;47.354;8.528;2023-04-01T12:35:32;3.37;;;1.53;;
4577;SDS011;2301;47.354;8.528;2023-04-01T12:38:15;3.03;;;0.90;;
4577;SDS011;2301;47.354;8.528;2023-04-01T12:40:51;1.67;;;0.80;;
4577;SDS011;2301;47.354;8.528;2023-04-01T12:43:34;1.30;;;0.80;;
4577;SDS011;2301;47.354;8.528;2023-04-01T12:46:19;1.27;;;0.77;;
4577;SDS011;2301;47.354;8.528;2023-04-01T12:52:10;2.10;;;0.80;;
4577;SDS011;2301;47.354;8.528;2023-04-01T12:54:56;2.65;;;0.90;;
4577;SDS011;2301;47.354;8.528;2023-04-01T12:58:03;1.57;;;0.90;;
4577;SDS011;2301;47.354;8.528;2023-04-01T13:01:10;3.38;;;1.25;;
4577;SDS011;2301;47.354;8.528;2023-04-01T13:10:35;4.33;;;0.90;;
4577;SDS011;2301;47.354;8.528;2023-04-01T13:13:22;2.80;;;1.10;;
4577;SDS011;2301;47.354;8.528;2023-04-01T13:16:05;1.75;;;0.90;;
4577;SDS011;2301;47.354;8.528;2023-04-01T13:18:39;1.50;;;0.83;;
4577;SDS011;2301;47.354;8.528;2023-04-01T13:21:16;3.00;;;1.00;;
4577;SDS011;2301;47.354;8.528;2023-04-01T13:23:53;1.67;;;0.90;;
4577;SDS011;2301;47.354;8.528;2023-04-01T13:26:29;2.60;;;0.80;;
4577;SDS011;2301;47.354;8.528;2023-04-01T13:29:04;1.37;;;0.77;;
4577;SDS011;2301;47.354;8.528;2023-04-01T13:31:38;2.50;;;1.10;;
4577;SDS011;2301;47.354;8.528;2023-04-01T13:34:30;2.60;;;1.00;;
4577;SDS011;2301;47.354;8.528;2023-04-01T13:37:15;2.33;;;1.07;;
4577;SDS011;2301;47.354;8.528;2023-04-01T13:39:57;1.60;;;1.03;;
4577;SDS011;2301;47.354;8.528;2023-04-01T13:42:42;2.03;;;0.93;;
4577;SDS011;2301;47.354;8.528;2023-04-01T13:45:15;2.13;;;1.00;;
4577;SDS011;2301;47.354;8.528;2023-04-01T13:47:56;2.27;;;1.00;;
4577;SDS011;2301;47.354;8.528;2023-04-01T13:50:56;1.50;;;0.90;;
4577;SDS011;2301;47.354;8.528;2023-04-01T13:53:51;1.67;;;0.98;;
4577;SDS011;2301;47.354;8.528;2023-04-01T13:56:41;2.33;;;1.00;;
4577;SDS011;2301;47.354;8.528;2023-04-01T13:59:32;2.07;;;0.97;;
4577;SDS011;2301;47.354;8.528;2023-04-01T14:02:20;1.80;;;1.00;;
4577;SDS011;2301;47.354;8.528;2023-04-01T14:05:17;3.30;;;1.30;;
4577;SDS011;2301;47.354;8.528;2023-04-01T14:08:04;2.13;;;1.10;;
4577;SDS011;2301;47.354;8.528;2023-04-01T14:10:42;1.63;;;1.00;;
4577;SDS011;2301;47.354;8.528;2023-04-01T14:13:17;1.50;;;0.93;;
4577;SDS011;2301;47.354;8.528;2023-04-01T14:15:57;2.33;;;1.07;;
4577;SDS011;2301;47.354;8.528;2023-04-01T14:18:39;1.90;;;0.90;;
4577;SDS011;2301;47.354;8.528;2023-04-01T14:21:21;1.57;;;1.10;;
4577;SDS011;2301;47.354;8.528;2023-04-01T14:24:07;1.73;;;0.90;;
4577;SDS011;2301;47.354;8.528;2023-04-01T14:29:53;3.03;;;1.10;;
4577;SDS011;2301;47.354;8.528;2023-04-01T14:32:38;1.80;;;0.90;;
4577;SDS011;2301;47.354;8.528;2023-04-01T14:35:17;3.30;;;0.90;;
4577;SDS011;2301;47.354;8.528;2023-04-01T14:37:58;1.17;;;0.80;;
4577;SDS011;2301;47.354;8.528;2023-04-01T14:40:41;1.50;;;0.80;;
4577;SDS011;2301;47.354;8.528;2023-04-01T14:43:25;1.40;;;0.90;;
4577;SDS011;2301;47.354;8.528;2023-04-01T14:46:35;2.67;;;0.93;;
4577;SDS011;2301;47.354;8.528;2023-04-01T14:49:32;4.18;;;0.95;;
4577;SDS011;2301;47.354;8.528;2023-04-01T14:52:05;1.90;;;0.90;;
4577;SDS011;2301;47.354;8.528;2023-04-01T14:54:38;1.50;;;0.90;;
4577;SDS011;2301;47.354;8.528;2023-04-01T14:57:10;1.73;;;1.07;;
4577;SDS011;2301;47.354;8.528;2023-04-01T14:59:39;2.83;;;1.00;;
4577;SDS011;2301;47.354;8.528;2023-04-01T15:02:14;2.10;;;0.90;;
4577;SDS011;2301;47.354;8.528;2023-04-01T15:05:00;1.30;;;0.80;;
4577;SDS011;2301;47.354;8.528;2023-04-01T15:07:47;2.07;;;1.00;;
4577;SDS011;2301;47.354;8.528;2023-04-01T15:10:40;4.10;;;1.10;;
4577;SDS011;2301;47.354;8.528;2023-04-01T15:13:40;2.80;;;1.07;;
4577;SDS011;2301;47.354;8.528;2023-04-01T15:16:20;2.00;;;0.90;;
4577;SDS011;2301;47.354;8.528;2023-04-01T15:18:56;1.70;;;0.80;;
4577;SDS011;2301;47.354;8.528;2023-04-01T15:21:36;1.63;;;1.05;;
4577;SDS011;2301;47.354;8.528;2023-04-01T15:24:16;2.42;;;1.00;;
4577;SDS011;2301;47.354;8.528;2023-04-01T15:27:00;2.00;;;0.90;;
4577;SDS011;2301;47.354;8.528;2023-04-01T15:29:51;1.20;;;0.80;;
4577;SDS011;2301;47.354;8.528;2023-04-01T15:32:31;1.50;;;0.90;;
4577;SDS011;2301;47.354;8.528;2023-04-01T15:35:14;2.30;;;0.90;;
4577;SDS011;2301;47.354;8.528;2023-04-01T15:37:51;1.60;;;0.80;;
4577;SDS011;2301;47.354;8.528;2023-04-01T15:40:22;1.27;;;0.80;;
4577;SDS011;2301;47.354;8.528;2023-04-01T15:42:55;1.83;;;0.80;;
4577;SDS011;2301;47.354;8.528;2023-04-01T15:45:33;1.20;;;0.80;;
4577;SDS011;2301;47.354;8.528;2023-04-01T15:48:10;2.55;;;1.00;;
4577;SDS011;2301;47.354;8.528;2023-04-01T15:50:53;1.50;;;0.85;;
4577;SDS011;2301;47.354;8.528;2023-04-01T15:53:31;1.80;;;0.83;;
4577;SDS011;2301;47.354;8.528;2023-04-01T15:56:16;1.67;;;1.10;;
4577;SDS011;2301;47.354;8.528;2023-04-01T15:58:53;1.30;;;0.90;;
4577;SDS011;2301;47.354;8.528;2023-04-01T16:01:32;2.13;;;0.95;;
4577;SDS011;2301;47.354;8.528;2023-04-01T16:04:08;1.30;;;0.90;;
4577;SDS011;2301;47.354;8.528;2023-04-01T16:06:53;2.60;;;0.90;;
4577;SDS011;2301;47.354;8.528;2023-04-01T16:09:36;2.00;;;1.00;;
4577;SDS011;2301;47.354;8.528;2023-04-01T16:12:15;1.70;;;1.00;;
4577;SDS011;2301;47.354;8.528;2023-04-01T16:14:49;2.67;;;0.98;;
4577;SDS011;2301;47.354;8.528;2023-04-01T16:17:44;1.75;;;0.90;;
4577;SDS011;2301;47.354;8.528;2023-04-01T16:20:34;1.50;;;0.95;;
4577;SDS011;2301;47.354;8.528;2023-04-01T16:23:10;2.75;;;0.80;;
4577;SDS011;2301;47.354;8.528;2023-04-01T16:25:45;3.30;;;1.00;;
4577;SDS011;2301;47.354;8.528;2023-04-01T16:28:21;1.73;;;1.10;;
4577;SDS011;2301;47.354;8.528;2023-04-01T16:30:57;1.83;;;0.80;;
4577;SDS011;2301;47.354;8.528;2023-04-01T16:33:30;1.98;;;1.10;;
4577;SDS011;2301;47.354;8.528;2023-04-01T16:36:07;2.38;;;1.13;;
4577;SDS011;2301;47.354;8.528;2023-04-01T16:38:39;1.90;;;0.93;;
4577;SDS011;2301;47.354;8.528;2023-04-01T16:41:16;1.60;;;1.15;;
4577;SDS011;2301;47.354;8.528;2023-04-01T16:43:44;2.10;;;1.00;;
4577;SDS011;2301;47.354;8.528;2023-04-01T16:46:20;2.13;;;0.97;;
4577;SDS011;2301;47.354;8.528;2023-04-01T16:48:58;1.40;;;0.80;;
4577;SDS011;2301;47.354;8.528;2023-04-01T16:51:36;1.50;;;0.93;;
4577;SDS011;2301;47.354;8.528;2023-04-01T16:54:11;1.25;;;1.00;;
4577;SDS011;2301;47.354;8.528;2023-04-01T16:56:45;1.40;;;0.90;;
4577;SDS011;2301;47.354;8.528;2023-04-01T16:59:18;1.50;;;0.90;;
4577;SDS011;2301;47.354;8.528;2023-04-01T17:01:49;2.15;;;0.80;;
4577;SDS011;2301;47.354;8.528;2023-04-01T17:04:23;1.70;;;0.90;;
4577;SDS011;2301;47.354;8.528;2023-04-01T17:06:58;1.65;;;0.90;;
4577;SDS011;2301;47.354;8.528;2023-04-01T17:09:42;1.52;;;0.90;;
4577;SDS011;2301;47.354;8.528;2023-04-01T17:12:19;2.88;;;1.20;;
4577;SDS011;2301;47.354;8.528;2023-04-01T17:14:54;1.85;;;0.90;;
4577;SDS011;2301;47.354;8.528;2023-04-01T17:17:30;2.03;;;1.00;;
4577;SDS011;2301;47.354;8.528;2023-04-01T17:20:11;1.92;;;0.88;;
4577;SDS011;2301;47.354;8.528;2023-04-01T17:22:59;1.60;;;0.90;;
4577;SDS011;2301;47.354;8.528;2023-04-01T17:25:37;1.15;;;0.80;;
4577;SDS011;2301;47.354;8.528;2023-04-01T17:28:18;1.50;;;0.90;;
4577;SDS011;2301;47.354;8.528;2023-04-01T17:30:58;1.90;;;1.17;;